createdAt,value
2022-09-17T00:01:23.368Z,1.97
2022-09-17T00:03:57.316Z,1.00
2022-09-17T00:06:26.313Z,1.10
2022-09-17T00:08:54.732Z,1.23
2022-09-17T00:11:30.670Z,0.97
2022-09-17T00:14:01.716Z,1.27
2022-09-17T00:16:32.142Z,1.07
2022-09-17T00:19:00.482Z,1.03
2022-09-17T00:21:28.755Z,1.30
2022-09-17T00:23:58.411Z,1.33
2022-09-17T00:26:26.777Z,1.13
2022-09-17T00:28:55.157Z,1.43
2022-09-17T00:31:23.142Z,1.13
2022-09-17T00:33:50.503Z,1.57
2022-09-17T00:36:20.530Z,1.43
2022-09-17T00:38:57.376Z,1.10
2022-09-17T00:41:28.548Z,1.30
2022-09-17T00:43:59.322Z,1.20
2022-09-17T00:46:42.578Z,1.20
2022-09-17T00:49:30.840Z,1.27
2022-09-17T00:52:07.324Z,1.03
2022-09-17T00:54:36.895Z,1.00
2022-09-17T00:57:04.211Z,1.40
2022-09-17T00:59:31.365Z,1.10
2022-09-17T01:01:58.687Z,1.20
2022-09-17T01:04:27.634Z,1.50
2022-09-17T01:07:18.735Z,1.33
2022-09-17T01:10:16.808Z,1.43
2022-09-17T01:13:23.310Z,1.23
2022-09-17T01:16:07.301Z,1.53
2022-09-17T01:18:46.973Z,1.40
2022-09-17T01:21:32.051Z,1.50
2022-09-17T01:24:17.778Z,1.90
2022-09-17T01:27:17.658Z,1.43
2022-09-17T01:30:02.716Z,1.93
2022-09-17T01:32:52.995Z,1.97
2022-09-17T01:35:49.756Z,2.10
2022-09-17T01:38:45.467Z,2.43
2022-09-17T01:41:29.546Z,2.60
2022-09-17T01:44:07.975Z,2.07
2022-09-17T01:46:47.855Z,2.33
2022-09-17T01:49:16.784Z,2.40
2022-09-17T01:51:48.707Z,2.60
2022-09-17T01:54:29.879Z,2.20
2022-09-17T01:57:13.312Z,2.00
2022-09-17T01:59:51.502Z,2.23
2022-09-17T02:02:35.870Z,2.37
2022-09-17T02:05:21.285Z,2.10
2022-09-17T02:08:02.762Z,2.10
2022-09-17T02:10:39.396Z,1.90
2022-09-17T02:13:23.481Z,2.20
2022-09-17T02:15:58.742Z,2.20
2022-09-17T02:18:36.373Z,2.27
2022-09-17T02:21:13.227Z,2.40
2022-09-17T02:23:54.670Z,2.20
2022-09-17T02:26:23.247Z,2.57
2022-09-17T02:29:05.732Z,2.20
2022-09-17T02:31:33.112Z,2.40
2022-09-17T02:34:03.251Z,2.47
2022-09-17T02:36:32.206Z,2.67
2022-09-17T02:39:02.294Z,2.40
2022-09-17T02:41:54.814Z,3.10
2022-09-17T02:45:07.617Z,3.10
2022-09-17T02:47:51.699Z,2.93
2022-09-17T02:50:35.613Z,2.83
2022-09-17T02:53:20.157Z,2.60
2022-09-17T02:56:20.557Z,2.50
2022-09-17T02:59:12.399Z,2.80
2022-09-17T03:01:49.456Z,2.23
2022-09-17T03:04:18.951Z,2.23
2022-09-17T03:06:47.439Z,2.93
2022-09-17T03:09:17.492Z,2.67
2022-09-17T03:11:44.724Z,2.60
2022-09-17T03:14:11.742Z,3.20
2022-09-17T03:16:38.757Z,3.37
2022-09-17T03:19:06.186Z,3.33
2022-09-17T03:21:33.198Z,3.60
2022-09-17T03:24:00.448Z,5.60
2022-09-17T03:26:27.770Z,6.60
2022-09-17T03:28:54.780Z,4.93
2022-09-17T03:31:21.895Z,4.53
2022-09-17T03:33:50.217Z,5.10
2022-09-17T03:36:17.515Z,4.37
2022-09-17T03:38:44.963Z,4.63
2022-09-17T03:41:12.167Z,3.93
2022-09-17T03:43:39.975Z,2.87
2022-09-17T03:46:07.474Z,3.80
2022-09-17T03:48:37.270Z,2.70
2022-09-17T03:51:04.711Z,2.53
2022-09-17T03:53:33.484Z,2.90
2022-09-17T03:56:02.470Z,2.93
2022-09-17T03:58:30.915Z,3.67
2022-09-17T04:00:58.370Z,3.33
2022-09-17T04:03:27.340Z,2.90
2022-09-17T04:05:54.993Z,2.90
2022-09-17T04:08:22.244Z,2.83
2022-09-17T04:10:49.331Z,2.07
2022-09-17T04:13:17.277Z,2.17
2022-09-17T04:15:45.976Z,2.10
2022-09-17T04:18:13.878Z,2.17
2022-09-17T04:20:41.551Z,1.90
2022-09-17T04:23:12.102Z,2.00
2022-09-17T04:25:39.707Z,2.00
2022-09-17T04:28:07.667Z,2.07
2022-09-17T04:30:34.887Z,2.77
2022-09-17T04:33:02.168Z,2.40
2022-09-17T04:35:29.427Z,1.93
2022-09-17T04:37:58.320Z,2.00
2022-09-17T04:40:27.118Z,2.00
2022-09-17T04:42:56.273Z,2.10
2022-09-17T04:45:24.046Z,2.17
2022-09-17T04:47:51.277Z,1.93
2022-09-17T04:50:19.351Z,1.73
2022-09-17T04:52:47.425Z,1.83
2022-09-17T04:55:15.715Z,1.43
2022-09-17T04:57:51.235Z,1.80
2022-09-17T05:00:20.152Z,2.10
2022-09-17T05:02:50.267Z,2.70
2022-09-17T05:05:19.103Z,1.97
2022-09-17T05:07:46.355Z,1.97
2022-09-17T05:10:15.901Z,1.60
2022-09-17T05:12:52.744Z,1.60
2022-09-17T05:15:20.510Z,1.93
2022-09-17T05:17:47.816Z,2.00
2022-09-17T05:20:16.264Z,2.33
2022-09-17T05:22:48.477Z,2.23
2022-09-17T05:25:18.172Z,3.13
2022-09-17T05:27:45.789Z,2.23
2022-09-17T05:30:13.632Z,1.67
2022-09-17T05:32:41.200Z,2.00
2022-09-17T05:35:09.647Z,1.70
2022-09-17T05:37:37.637Z,1.80
2022-09-17T05:40:08.516Z,1.83
2022-09-17T05:42:36.208Z,1.80
2022-09-17T05:45:03.955Z,1.37
2022-09-17T05:47:31.076Z,1.40
2022-09-17T05:49:58.155Z,1.57
2022-09-17T05:52:29.064Z,1.80
2022-09-17T05:54:56.827Z,1.50
2022-09-17T05:57:24.517Z,2.13
2022-09-17T05:59:51.583Z,1.40
2022-09-17T06:02:18.612Z,1.87
2022-09-17T06:04:46.583Z,1.40
2022-09-17T06:07:13.705Z,1.67
2022-09-17T06:09:41.187Z,1.47
2022-09-17T06:12:08.644Z,0.97
2022-09-17T06:14:35.694Z,1.20
2022-09-17T06:17:02.672Z,1.43
2022-09-17T06:19:29.694Z,1.50
2022-09-17T06:21:56.949Z,1.60
2022-09-17T06:24:24.154Z,1.50
2022-09-17T06:26:52.653Z,1.83
2022-09-17T06:29:22.572Z,1.40
2022-09-17T06:31:50.025Z,1.37
2022-09-17T06:34:18.052Z,1.40
2022-09-17T06:36:45.449Z,1.63
2022-09-17T06:39:13.384Z,1.43
2022-09-17T06:41:43.313Z,1.40
2022-09-17T06:44:10.759Z,1.60
2022-09-17T06:46:37.876Z,1.50
2022-09-17T06:49:05.085Z,1.80
2022-09-17T06:51:32.148Z,1.70
2022-09-17T06:53:59.424Z,1.60
2022-09-17T06:56:26.573Z,1.60
2022-09-17T06:58:54.894Z,1.50
2022-09-17T07:01:24.511Z,1.60
2022-09-17T07:03:51.767Z,1.57
2022-09-17T07:06:18.806Z,2.23
2022-09-17T07:08:47.162Z,1.90
2022-09-17T07:11:16.230Z,1.53
2022-09-17T07:13:43.656Z,1.87
2022-09-17T07:16:11.214Z,1.47
2022-09-17T07:18:39.195Z,1.50
2022-09-17T07:21:07.948Z,2.20
2022-09-17T07:23:37.314Z,1.80
2022-09-17T07:26:08.478Z,2.10
2022-09-17T07:28:35.786Z,1.70
2022-09-17T07:31:09.364Z,1.70
2022-09-17T07:33:39.050Z,1.50
2022-09-17T07:36:10.715Z,1.50
2022-09-17T07:38:41.746Z,1.63
2022-09-17T07:41:15.897Z,1.67
2022-09-17T07:43:44.068Z,1.67
2022-09-17T07:46:18.024Z,2.20
2022-09-17T07:48:46.651Z,1.70
2022-09-17T07:51:23.288Z,1.83
2022-09-17T07:53:55.638Z,1.93
2022-09-17T07:56:23.981Z,1.43
2022-09-17T07:58:51.953Z,1.37
2022-09-17T08:01:21.307Z,1.13
2022-09-17T08:03:51.682Z,2.30
2022-09-17T08:06:22.989Z,2.07
2022-09-17T08:08:53.387Z,1.30
2022-09-17T08:11:45.057Z,1.10
2022-09-17T08:14:14.920Z,1.47
2022-09-17T08:16:42.708Z,1.30
2022-09-17T08:19:12.940Z,1.70
2022-09-17T08:21:40.155Z,1.20
2022-09-17T08:24:07.458Z,1.40
2022-09-17T08:26:36.683Z,1.37
2022-09-17T08:29:07.068Z,1.10
2022-09-17T08:31:34.276Z,1.30
2022-09-17T08:34:01.485Z,1.50
2022-09-17T08:36:28.805Z,1.83
2022-09-17T08:38:56.920Z,2.17
2022-09-17T08:41:58.087Z,1.37
2022-09-17T08:44:32.707Z,1.83
2022-09-17T08:47:06.402Z,1.93
2022-09-17T08:49:48.933Z,1.60
2022-09-17T08:52:27.761Z,1.20
2022-09-17T08:54:54.803Z,0.90
2022-09-17T08:57:40.279Z,1.03
2022-09-17T09:00:16.545Z,1.47
2022-09-17T09:03:05.319Z,1.07
2022-09-17T09:05:54.112Z,1.13
2022-09-17T09:09:06.011Z,1.10
2022-09-17T09:11:34.004Z,1.00
2022-09-17T09:14:12.208Z,1.10
2022-09-17T09:16:45.952Z,1.63
2022-09-17T09:19:30.503Z,1.40
2022-09-17T09:22:36.547Z,1.77
2022-09-17T09:25:27.266Z,1.70
2022-09-17T09:28:20.156Z,1.47
2022-09-17T09:31:26.538Z,1.10
2022-09-17T09:33:55.431Z,1.77
2022-09-17T09:36:22.677Z,1.70
2022-09-17T09:38:59.182Z,2.07
2022-09-17T09:41:40.824Z,1.60
2022-09-17T09:44:14.034Z,1.90
2022-09-17T09:47:21.209Z,1.80
2022-09-17T09:50:09.226Z,1.17
2022-09-17T09:52:51.319Z,1.60
2022-09-17T09:55:50.263Z,2.13
2022-09-17T09:58:38.530Z,1.63
2022-09-17T10:01:30.549Z,1.57
2022-09-17T10:04:37.401Z,1.27
2022-09-17T10:07:08.175Z,0.90
2022-09-17T10:09:38.332Z,1.33
2022-09-17T10:12:11.585Z,1.10
2022-09-17T10:14:41.678Z,1.00
2022-09-17T10:17:20.866Z,0.80
2022-09-17T10:20:00.198Z,1.30
2022-09-17T10:22:34.372Z,1.13
2022-09-17T10:25:03.472Z,1.80
2022-09-17T10:27:31.195Z,1.37
2022-09-17T10:30:03.304Z,1.37
2022-09-17T10:32:30.360Z,1.67
2022-09-17T10:35:16.414Z,1.80
2022-09-17T10:37:46.136Z,1.67
2022-09-17T10:40:19.296Z,1.27
2022-09-17T10:43:12.218Z,1.52
2022-09-17T10:45:54.671Z,1.40
2022-09-17T10:48:22.785Z,1.30
2022-09-17T10:50:54.401Z,1.27
2022-09-17T10:53:25.076Z,1.60
2022-09-17T10:56:22.074Z,1.47
2022-09-17T10:59:29.972Z,1.50
2022-09-17T11:02:30.991Z,2.30
2022-09-17T11:05:27.284Z,1.63
2022-09-17T11:08:18.226Z,1.60
2022-09-17T11:10:54.170Z,1.80
2022-09-17T11:13:45.947Z,1.80
2022-09-17T11:16:38.742Z,1.90
2022-09-17T11:19:18.251Z,1.83
2022-09-17T11:22:18.905Z,1.50
2022-09-17T11:25:24.493Z,1.48
2022-09-17T11:28:34.752Z,1.40
2022-09-17T11:31:31.338Z,2.23
2022-09-17T11:34:22.395Z,1.83
2022-09-17T11:37:11.251Z,2.03
2022-09-17T11:39:55.781Z,1.90
2022-09-17T11:42:31.862Z,2.03
2022-09-17T11:45:31.239Z,2.08
2022-09-17T11:48:16.946Z,2.00
2022-09-17T11:50:45.482Z,1.40
2022-09-17T11:53:42.456Z,1.10
2022-09-17T11:56:49.568Z,1.75
2022-09-17T11:59:45.204Z,1.03
2022-09-17T12:02:50.934Z,1.90
2022-09-17T12:05:46.244Z,1.80
2022-09-17T12:08:54.970Z,0.93
2022-09-17T12:11:52.171Z,1.13
2022-09-17T12:14:59.424Z,1.67
2022-09-17T12:17:42.764Z,3.43
2022-09-17T12:20:28.603Z,1.63
2022-09-17T12:22:58.615Z,1.70
2022-09-17T12:25:34.110Z,1.57
2022-09-17T12:28:10.354Z,1.80
2022-09-17T12:30:47.206Z,1.90
2022-09-17T12:33:35.002Z,2.07
2022-09-17T12:36:37.596Z,2.10
2022-09-17T12:39:23.765Z,1.80
2022-09-17T12:42:21.619Z,1.93
2022-09-17T12:45:18.299Z,1.67
2022-09-17T12:48:23.549Z,1.50
2022-09-17T12:51:22.359Z,2.10
2022-09-17T12:54:35.613Z,2.60
2022-09-17T12:57:20.550Z,2.60
2022-09-17T13:00:15.809Z,1.90
2022-09-17T13:03:02.292Z,1.90
2022-09-17T13:06:03.970Z,1.57
2022-09-17T13:09:01.082Z,1.70
2022-09-17T13:12:24.246Z,1.70
2022-09-17T13:14:57.033Z,1.20
2022-09-17T13:17:46.654Z,1.00
2022-09-17T13:21:05.713Z,1.10
2022-09-17T13:23:44.912Z,2.07
2022-09-17T13:26:19.468Z,1.10
2022-09-17T13:28:50.136Z,1.30
2022-09-17T13:31:23.847Z,1.10
2022-09-17T13:33:56.171Z,1.10
2022-09-17T13:36:46.920Z,1.23
2022-09-17T13:39:45.712Z,1.40
2022-09-17T13:42:22.072Z,1.33
2022-09-17T13:45:13.268Z,1.30
2022-09-17T13:48:04.129Z,1.30
2022-09-17T13:50:37.778Z,1.20
2022-09-17T13:53:13.746Z,1.40
2022-09-17T13:55:58.554Z,1.50
2022-09-17T13:58:32.139Z,1.30
2022-09-17T14:01:06.134Z,1.50
2022-09-17T14:03:40.669Z,1.77
2022-09-17T14:06:11.272Z,2.03
2022-09-17T14:08:44.231Z,1.47
2022-09-17T14:11:26.981Z,1.97
2022-09-17T14:14:06.489Z,2.13
2022-09-17T14:16:50.416Z,1.67
2022-09-17T14:19:51.338Z,1.53
2022-09-17T14:22:26.072Z,1.70
2022-09-17T14:24:55.123Z,1.47
2022-09-17T14:27:42.516Z,1.37
2022-09-17T14:30:23.366Z,1.03
2022-09-17T14:33:11.383Z,2.23
2022-09-17T14:35:57.551Z,3.70
2022-09-17T14:38:44.670Z,2.00
2022-09-17T14:41:11.702Z,1.77
2022-09-17T14:43:57.417Z,1.40
2022-09-17T14:47:13.472Z,1.60
2022-09-17T14:49:41.069Z,1.70
2022-09-17T14:52:32.701Z,1.43
2022-09-17T14:55:16.815Z,0.80
2022-09-17T14:57:46.677Z,1.17
2022-09-17T15:00:26.314Z,1.67
2022-09-17T15:02:56.060Z,1.40
2022-09-17T15:05:31.839Z,0.90
2022-09-17T15:08:28.930Z,1.03
2022-09-17T15:10:59.485Z,1.50
2022-09-17T15:13:33.060Z,1.17
2022-09-17T15:16:07.675Z,1.50
2022-09-17T15:18:41.531Z,1.30
2022-09-17T15:21:43.370Z,1.60
2022-09-17T15:25:06.527Z,1.60
2022-09-17T15:27:43.508Z,1.47
2022-09-17T15:30:20.846Z,1.40
2022-09-17T15:32:54.098Z,1.50
2022-09-17T15:35:30.020Z,1.50
2022-09-17T15:38:22.173Z,1.90
2022-09-17T15:40:50.471Z,2.30
2022-09-17T15:43:34.011Z,1.73
2022-09-17T15:46:26.910Z,1.43
2022-09-17T15:49:00.297Z,1.83
2022-09-17T15:51:32.436Z,1.90
2022-09-17T15:54:30.486Z,1.80
2022-09-17T15:57:01.506Z,1.93
2022-09-17T15:59:32.051Z,2.23
2022-09-17T16:02:02.021Z,1.70
2022-09-17T16:04:33.723Z,1.73
2022-09-17T16:07:08.267Z,1.60
2022-09-17T16:09:47.106Z,1.20
2022-09-17T16:12:23.837Z,1.23
2022-09-17T16:14:56.916Z,1.27
2022-09-17T16:17:29.389Z,1.70
2022-09-17T16:19:56.924Z,1.70
2022-09-17T16:22:24.078Z,1.17
2022-09-17T16:24:51.135Z,1.70
2022-09-17T16:27:25.317Z,1.50
2022-09-17T16:30:00.139Z,1.33
2022-09-17T16:32:27.167Z,1.20
2022-09-17T16:34:54.125Z,1.40
2022-09-17T16:37:21.195Z,1.43
2022-09-17T16:39:48.342Z,1.30
2022-09-17T16:42:15.374Z,1.37
2022-09-17T16:44:42.390Z,1.60
2022-09-17T16:47:09.454Z,1.30
2022-09-17T16:49:36.603Z,1.53
2022-09-17T16:52:03.649Z,1.67
2022-09-17T16:54:30.689Z,1.70
2022-09-17T16:57:00.987Z,1.60
2022-09-17T16:59:28.089Z,1.90
2022-09-17T17:01:55.123Z,1.80
2022-09-17T17:04:22.727Z,2.00
2022-09-17T17:06:49.880Z,2.50
2022-09-17T17:09:16.922Z,2.63
2022-09-17T17:11:44.112Z,2.10
2022-09-17T17:14:14.678Z,1.97
2022-09-17T17:16:43.720Z,2.23
2022-09-17T17:19:11.057Z,2.23
2022-09-17T17:21:38.248Z,2.40
2022-09-17T17:24:06.859Z,3.97
2022-09-17T17:26:34.823Z,2.90
2022-09-17T17:29:02.633Z,2.23
2022-09-17T17:31:29.885Z,1.90
2022-09-17T17:33:58.107Z,2.10
2022-09-17T17:36:25.096Z,2.17
2022-09-17T17:38:57.708Z,2.57
2022-09-17T17:41:26.443Z,2.10
2022-09-17T17:43:55.262Z,1.50
2022-09-17T17:46:23.390Z,2.50
2022-09-17T17:48:51.365Z,2.20
2022-09-17T17:51:20.563Z,1.97
2022-09-17T17:53:47.701Z,1.90
2022-09-17T17:56:15.234Z,1.80
2022-09-17T17:58:42.628Z,1.77
2022-09-17T18:01:23.194Z,1.83
2022-09-17T18:03:50.495Z,2.00
2022-09-17T18:06:17.596Z,1.97
2022-09-17T18:08:54.067Z,2.00
2022-09-17T18:11:22.773Z,1.70
2022-09-17T18:13:55.521Z,1.60
2022-09-17T18:16:24.129Z,1.50
2022-09-17T18:18:51.633Z,2.13
2022-09-17T18:21:24.160Z,2.20
2022-09-17T18:23:51.685Z,1.90
2022-09-17T18:26:27.761Z,1.57
2022-09-17T18:28:55.187Z,1.43
2022-09-17T18:31:34.792Z,1.50
2022-09-17T18:34:08.098Z,1.67
2022-09-17T18:36:37.121Z,1.50
2022-09-17T18:39:44.566Z,2.13
2022-09-17T18:41:54.445Z,2.00
2022-09-17T18:44:23.082Z,2.27
2022-09-17T18:46:51.401Z,2.17
2022-09-17T18:49:18.716Z,1.80
2022-09-17T18:51:45.966Z,1.73
2022-09-17T18:54:13.515Z,2.10
2022-09-17T18:56:41.876Z,2.73
2022-09-17T18:59:09.923Z,3.47
2022-09-17T19:01:37.709Z,3.27
2022-09-17T19:04:07.700Z,2.57
2022-09-17T19:06:35.700Z,3.17
2022-09-17T19:09:04.797Z,3.73
2022-09-17T19:11:32.332Z,4.43
2022-09-17T19:14:02.613Z,3.37
2022-09-17T19:16:29.917Z,2.93
2022-09-17T19:18:58.419Z,4.37
2022-09-17T19:21:27.184Z,5.30
2022-09-17T19:23:58.037Z,7.20
2022-09-17T19:26:27.297Z,4.00
2022-09-17T19:29:03.311Z,4.17
2022-09-17T19:31:30.614Z,4.47
2022-09-17T19:33:59.181Z,3.60
2022-09-17T19:36:27.001Z,4.23
2022-09-17T19:38:54.480Z,3.90
2022-09-17T19:41:23.611Z,4.10
2022-09-17T19:43:55.355Z,6.07
2022-09-17T19:46:25.520Z,3.57
2022-09-17T19:48:55.444Z,3.93
2022-09-17T19:51:25.700Z,3.53
2022-09-17T19:53:53.839Z,3.80
2022-09-17T19:56:24.548Z,3.50
2022-09-17T19:58:52.500Z,3.70
2022-09-17T20:01:20.524Z,3.70
2022-09-17T20:03:51.131Z,6.90
2022-09-17T20:06:20.925Z,8.10
2022-09-17T20:08:50.763Z,8.83
2022-09-17T20:11:20.730Z,10.17
2022-09-17T20:13:48.009Z,8.43
2022-09-17T20:16:21.606Z,5.13
2022-09-17T20:18:49.840Z,4.83
2022-09-17T20:21:25.039Z,5.33
2022-09-17T20:23:52.489Z,5.40
2022-09-17T20:26:20.710Z,4.80
2022-09-17T20:28:50.371Z,4.97
2022-09-17T20:31:23.366Z,4.10
2022-09-17T20:33:59.230Z,4.57
2022-09-17T20:36:31.085Z,6.03
2022-09-17T20:39:21.127Z,6.10
2022-09-17T20:41:46.016Z,5.43
2022-09-17T20:44:13.188Z,5.93
2022-09-17T20:46:40.589Z,5.73
2022-09-17T20:49:07.859Z,4.33
2022-09-17T20:51:35.577Z,4.57
2022-09-17T20:54:03.724Z,4.80
2022-09-17T20:56:34.455Z,4.67
2022-09-17T20:59:15.291Z,5.50
2022-09-17T21:01:45.441Z,6.27
2022-09-17T21:04:16.595Z,6.20
2022-09-17T21:06:44.555Z,6.03
2022-09-17T21:09:16.715Z,5.77
2022-09-17T21:11:46.595Z,5.63
2022-09-17T21:14:15.934Z,6.17
2022-09-17T21:16:43.585Z,6.03
2022-09-17T21:19:13.057Z,6.80
2022-09-17T21:21:40.151Z,6.53
2022-09-17T21:24:10.225Z,6.07
2022-09-17T21:26:37.844Z,6.37
2022-09-17T21:29:05.386Z,5.33
2022-09-17T21:31:35.881Z,5.20
2022-09-17T21:34:12.695Z,4.83
2022-09-17T21:36:41.563Z,5.93
2022-09-17T21:39:14.819Z,5.53
2022-09-17T21:41:43.281Z,6.47
2022-09-17T21:44:13.867Z,6.43
2022-09-17T21:46:41.951Z,6.33
2022-09-17T21:49:09.747Z,6.63
2022-09-17T21:51:42.802Z,6.30
2022-09-17T21:54:13.218Z,6.67
2022-09-17T21:56:40.432Z,6.90
2022-09-17T21:59:11.156Z,6.60
2022-09-17T22:01:43.652Z,6.87
2022-09-17T22:04:16.621Z,6.87
2022-09-17T22:06:44.692Z,7.20
2022-09-17T22:09:19.841Z,6.30
2022-09-17T22:11:47.607Z,7.07
2022-09-17T22:14:20.811Z,7.37
2022-09-17T22:16:52.674Z,8.30
2022-09-17T22:19:21.282Z,7.47
2022-09-17T22:21:51.722Z,6.90
2022-09-17T22:24:21.153Z,6.83
2022-09-17T22:26:56.538Z,6.00
2022-09-17T22:29:24.965Z,5.60
2022-09-17T22:31:51.951Z,5.27
2022-09-17T22:34:21.342Z,5.43
2022-09-17T22:36:49.351Z,4.87
2022-09-17T22:39:19.085Z,5.10
2022-09-17T22:41:46.270Z,4.33
2022-09-17T22:44:17.747Z,4.80
2022-09-17T22:46:48.169Z,4.27
2022-09-17T22:49:16.222Z,4.43
2022-09-17T22:51:44.725Z,4.40
2022-09-17T22:54:14.286Z,4.13
2022-09-17T22:56:42.165Z,3.50
2022-09-17T22:59:09.749Z,4.20
2022-09-17T23:01:39.083Z,3.90
2022-09-17T23:04:06.581Z,4.67
2022-09-17T23:06:38.260Z,4.00
2022-09-17T23:09:06.136Z,4.13
2022-09-17T23:11:39.133Z,3.70
2022-09-17T23:14:11.130Z,4.10
2022-09-17T23:16:42.879Z,4.47
2022-09-17T23:19:10.574Z,4.30
2022-09-17T23:21:38.680Z,3.30
2022-09-17T23:24:06.525Z,3.87
2022-09-17T23:26:33.645Z,3.90
2022-09-17T23:29:04.913Z,3.50
2022-09-17T23:31:34.911Z,3.70
2022-09-17T23:34:03.940Z,2.87
2022-09-17T23:36:34.980Z,2.10
2022-09-17T23:39:03.711Z,2.13
2022-09-17T23:41:36.779Z,2.47
2022-09-17T23:44:12.102Z,1.90
2022-09-17T23:46:41.989Z,2.10
2022-09-17T23:49:12.195Z,2.40
2022-09-17T23:51:39.184Z,2.03
2022-09-17T23:54:07.294Z,2.10
2022-09-17T23:56:35.366Z,1.77
2022-09-17T23:59:02.852Z,1.73
